Willcox, Arizona
Current Conditions -  °F | °C
As of 7:51 PM on Friday 21 Nov 2014 (Local Time) from KSAD Reporting Station
Clear Clear  
Wind Chill: 45°   Ceiling: Unl
Heat Index: 49°   Visibility: 10mi
Dew Point: 22°   Wind: 8mph
Humidity: 35%   Direction: 280°W
Pressure: 29.96"   Gusts: NA
Location:  32.25°N, 109.84°W
Report Text: KSAD 220251Z AUTO 28007KT 10SM CLR 09/M06 A2996 RMK AO2 SLP132 T00941056 53009
Loading
Personal Weather Stations






























Interactive Weather Map New forecast layout! Learn more

10-Day Weather Forecast

Advertisements
Track Severe Weather on mobile